Estación Meteorológica Peña el Pijo (Robertgarden) [ 12/11/19 23:06:33 CET ]

Fecha Hora Presion(HPa) Temp (°C) Humedad % Rocio (°C) Viento ( m/s) Direccion Lluvia 1Hora(mm) Lluvia 24H(mm) LLuvia Total(mm)
2019-Aug-29 01:01:40 1013.400 16.4 77 12.4         385.10
2019-Aug-29 02:01:45 1013.500 15.4 80 12.0         385.10
2019-Aug-29 03:01:51 1013.500 15.3 82 12.3         385.10
2019-Aug-29 04:01:45 1013.000 14.9 83 12.0         385.10
2019-Aug-29 05:01:42 1012.800 14.2 84 11.5         385.10
2019-Aug-29 06:06:16 1012.800 13.3 85 10.8         385.10
2019-Aug-29 07:01:50 1013.100 13.0 86 10.7         385.10
2019-Aug-29 08:01:47 1013.400 12.8 87 10.7         385.10
2019-Aug-29 09:02:01 1013.700 16.6 88 14.6         385.10
2019-Aug-29 10:01:55 1013.900 20.9 74 16.0         385.10
2019-Aug-29 11:01:40 1013.900 26.1 52 15.5         385.10
2019-Aug-29 12:01:44 1013.800 29.1 43 15.2         385.10
2019-Aug-29 13:01:50 1013.900 30.8 34 13.0         385.10
2019-Aug-29 14:01:46 1013.800 32.6 32 13.7         385.10
2019-Aug-29 15:01:47 1013.700 30.6 34 12.9         385.10
2019-Aug-29 16:01:48 1013.400 28.1 38 12.4         385.10
2019-Aug-29 17:01:40 1013.400 27.9 38 12.2         385.10
2019-Aug-29 18:01:42 1013.400 27.4 42 13.3         385.10
2019-Aug-29 19:01:54 1013.300 28.1 40 13.3         385.10
2019-Aug-29 20:01:56 1014.200 24.4 53 14.2         385.10
2019-Aug-29 21:01:47 1014.100 22.1 58 13.4         385.10
2019-Aug-29 22:01:56 1014.600 19.3 66 12.8         385.10
2019-Aug-29 23:01:46 1014.900 17.6 71 12.3         385.10

Temperatura Máxima:32°    Temperatura Mínima:12°
Presión Máxima:1014.900 Hpa    Presión Mínima:1012.800 Hpa


Volver